createdAt,value
2023-05-11T00:03:45.432Z,62.83
2023-05-11T00:08:47.734Z,62.91
2023-05-11T00:13:50.000Z,62.73
2023-05-11T00:18:52.317Z,62.88
2023-05-11T00:23:54.939Z,62.74
2023-05-11T00:28:57.204Z,62.52
2023-05-11T00:33:59.525Z,62.56
2023-05-11T00:39:01.893Z,62.27
2023-05-11T00:44:04.362Z,62.59
2023-05-11T00:49:07.456Z,62.43
2023-05-11T00:54:15.646Z,62.56
2023-05-11T00:59:18.026Z,62.69
2023-05-11T01:04:21.155Z,62.42
2023-05-11T01:09:41.929Z,62.44
2023-05-11T01:15:01.341Z,62.64
2023-05-11T01:20:07.815Z,62.39
2023-05-11T01:25:13.126Z,62.74
2023-05-11T01:30:18.235Z,63.05
2023-05-11T01:35:23.497Z,63.28
2023-05-11T01:40:29.909Z,63.38
2023-05-11T01:45:34.804Z,63.50
2023-05-11T01:50:38.135Z,63.47
2023-05-11T01:55:42.347Z,63.33
2023-05-11T02:00:45.923Z,63.22
2023-05-11T02:05:49.993Z,63.90
2023-05-11T02:10:55.140Z,63.77
2023-05-11T02:15:59.141Z,64.24
2023-05-11T02:21:03.481Z,64.45
2023-05-11T02:26:07.131Z,64.16
2023-05-11T02:31:18.091Z,64.48
2023-05-11T02:36:23.314Z,64.37
2023-05-11T02:41:30.056Z,64.40
2023-05-11T02:46:36.084Z,64.11
2023-05-11T02:51:41.677Z,64.15
2023-05-11T02:56:45.360Z,64.46
2023-05-11T03:01:48.544Z,64.75
2023-05-11T03:06:51.160Z,64.93
2023-05-11T03:11:53.502Z,65.10
2023-05-11T03:16:57.740Z,64.92
2023-05-11T03:22:01.424Z,65.23
2023-05-11T03:27:06.373Z,65.47
2023-05-11T03:32:09.974Z,65.35
2023-05-11T03:37:14.198Z,65.54
2023-05-11T03:42:18.161Z,65.53
2023-05-11T03:47:21.570Z,65.13
2023-05-11T03:52:24.295Z,65.30
2023-05-11T03:57:26.933Z,65.00
2023-05-11T04:02:29.232Z,64.83
2023-05-11T04:07:33.330Z,64.35
2023-05-11T04:12:35.566Z,64.70
2023-05-11T04:17:37.823Z,64.38
2023-05-11T04:22:40.040Z,64.31
2023-05-11T04:27:42.306Z,64.00
2023-05-11T04:32:44.547Z,63.96
2023-05-11T04:37:46.849Z,63.65
2023-05-11T04:42:49.101Z,63.33
2023-05-11T04:47:52.084Z,63.53
2023-05-11T04:52:54.299Z,63.26
2023-05-11T04:57:56.615Z,63.43
2023-05-11T05:02:58.874Z,62.69
2023-05-11T05:08:01.222Z,62.04
2023-05-11T05:13:03.450Z,61.30
2023-05-11T05:18:05.742Z,60.82
2023-05-11T05:23:07.962Z,60.40
2023-05-11T05:28:10.113Z,59.84
2023-05-11T05:33:12.636Z,59.44
2023-05-11T05:38:14.833Z,58.99
2023-05-11T05:43:17.049Z,58.63
2023-05-11T05:48:19.244Z,58.20
2023-05-11T05:53:21.485Z,57.94
2023-05-11T05:58:23.733Z,57.84
2023-05-11T06:03:28.432Z,57.54
2023-05-11T06:08:31.510Z,56.81
2023-05-11T06:13:33.660Z,56.65
2023-05-11T06:18:35.984Z,56.10
2023-05-11T06:23:38.227Z,55.22
2023-05-11T06:28:40.512Z,55.15
2023-05-11T06:33:43.455Z,54.98
2023-05-11T06:38:45.704Z,54.40
2023-05-11T06:43:47.927Z,54.88
2023-05-11T06:48:50.766Z,54.74
2023-05-11T06:53:53.050Z,54.67
2023-05-11T06:58:55.234Z,54.59
2023-05-11T07:03:57.500Z,54.67
2023-05-11T07:08:59.717Z,54.65
2023-05-11T07:14:01.930Z,54.67
2023-05-11T07:19:05.537Z,54.82
2023-05-11T07:24:07.998Z,55.06
2023-05-11T07:29:10.256Z,54.82
2023-05-11T07:34:12.485Z,54.95
2023-05-11T07:39:17.364Z,54.90
2023-05-11T07:44:19.677Z,55.22
2023-05-11T07:49:28.181Z,55.23
2023-05-11T07:54:33.425Z,55.41
2023-05-11T07:59:35.734Z,55.63
2023-05-11T08:04:38.392Z,55.39
2023-05-11T08:09:40.650Z,55.04
2023-05-11T08:14:43.668Z,55.09
2023-05-11T08:19:46.121Z,55.23
2023-05-11T08:24:50.175Z,55.10
2023-05-11T08:29:52.379Z,54.74
2023-05-11T08:34:54.794Z,54.78
2023-05-11T08:39:57.282Z,54.87
2023-05-11T08:45:00.658Z,54.52
2023-05-11T08:50:03.129Z,54.11
2023-05-11T08:55:05.738Z,53.98
2023-05-11T09:00:09.016Z,53.71
2023-05-11T09:05:11.872Z,53.86
2023-05-11T09:10:14.190Z,53.48
2023-05-11T09:15:16.384Z,53.18
2023-05-11T09:20:28.222Z,53.00
2023-05-11T09:25:35.362Z,52.65
2023-05-11T09:30:37.983Z,52.01
2023-05-11T09:35:40.707Z,52.27
2023-05-11T09:40:54.122Z,52.00
2023-05-11T09:45:58.429Z,51.80
2023-05-11T09:51:06.278Z,51.71
2023-05-11T09:56:08.685Z,51.97
2023-05-11T10:01:11.311Z,52.25
2023-05-11T10:06:13.675Z,52.03
2023-05-11T10:11:16.169Z,52.03
2023-05-11T10:16:21.305Z,51.64
2023-05-11T10:21:24.026Z,51.96
2023-05-11T10:26:27.109Z,51.40
2023-05-11T10:31:30.341Z,50.96
2023-05-11T10:36:33.613Z,50.90
2023-05-11T10:41:45.541Z,50.70
2023-05-11T10:47:28.329Z,51.11
2023-05-11T10:52:47.730Z,50.86
2023-05-11T10:58:06.824Z,50.82
2023-05-11T11:03:12.952Z,51.13
2023-05-11T11:08:15.243Z,51.34
2023-05-11T11:13:20.486Z,51.56
2023-05-11T11:18:30.907Z,51.67
2023-05-11T11:23:49.530Z,52.18
2023-05-11T11:28:54.619Z,52.24
2023-05-11T11:33:59.461Z,52.60
2023-05-11T11:39:04.291Z,53.14
2023-05-11T11:44:22.255Z,53.49
2023-05-11T11:49:28.063Z,53.66
2023-05-11T11:54:48.238Z,54.32
2023-05-11T11:59:50.546Z,55.05
2023-05-11T12:05:19.198Z,55.68
2023-05-11T12:10:23.534Z,56.13
2023-05-11T12:15:35.178Z,56.52
2023-05-11T12:20:37.525Z,56.87
2023-05-11T12:25:39.851Z,56.73
2023-05-11T12:30:42.360Z,56.72
2023-05-11T12:35:44.829Z,56.69
2023-05-11T12:40:51.699Z,56.67
2023-05-11T12:45:54.181Z,57.23
2023-05-11T12:50:57.287Z,57.29
2023-05-11T12:56:00.426Z,57.52
2023-05-11T13:01:02.901Z,57.53
2023-05-11T13:06:09.824Z,57.65
2023-05-11T13:11:23.013Z,57.69
2023-05-11T13:16:33.025Z,57.71
2023-05-11T13:21:35.331Z,57.41
2023-05-11T13:26:37.871Z,57.27
2023-05-11T13:31:47.687Z,57.45
2023-05-11T13:36:50.355Z,57.49
2023-05-11T13:41:55.044Z,57.23
2023-05-11T13:46:58.202Z,57.66
2023-05-11T13:52:00.982Z,57.83
2023-05-11T13:57:03.439Z,58.33
2023-05-11T14:02:06.011Z,58.31
2023-05-11T14:07:08.389Z,58.41
2023-05-11T14:12:11.055Z,58.28
2023-05-11T14:17:16.172Z,58.53
2023-05-11T14:22:18.408Z,58.95
2023-05-11T14:27:20.595Z,59.30
2023-05-11T14:32:22.846Z,58.98
2023-05-11T14:37:25.051Z,58.60
2023-05-11T14:42:27.445Z,58.66
2023-05-11T14:47:29.880Z,58.55
2023-05-11T14:52:32.257Z,58.28
2023-05-11T14:57:34.548Z,58.37
2023-05-11T15:02:36.925Z,58.66
2023-05-11T15:07:39.773Z,58.92
2023-05-11T15:12:41.984Z,59.00
2023-05-11T15:17:44.344Z,58.93
2023-05-11T15:22:48.063Z,58.94
2023-05-11T15:27:50.396Z,59.01
2023-05-11T15:32:52.691Z,59.14
2023-05-11T15:37:54.962Z,59.64
2023-05-11T15:42:58.731Z,59.59
2023-05-11T15:48:01.785Z,59.56
2023-05-11T15:53:04.213Z,59.42
2023-05-11T15:58:09.736Z,59.68
2023-05-11T16:03:12.235Z,59.58
2023-05-11T16:08:15.030Z,59.34
2023-05-11T16:13:17.402Z,59.40
2023-05-11T16:18:20.349Z,59.28
2023-05-11T16:23:22.792Z,59.28
2023-05-11T16:28:25.692Z,59.18
2023-05-11T16:33:27.924Z,59.12
2023-05-11T16:38:30.102Z,58.89
2023-05-11T16:43:33.802Z,59.18
2023-05-11T16:48:36.415Z,59.15
2023-05-11T16:53:38.706Z,59.19
2023-05-11T16:58:41.591Z,59.21
2023-05-11T17:03:44.179Z,59.42
2023-05-11T17:08:46.499Z,59.77
2023-05-11T17:13:48.794Z,60.17
2023-05-11T17:18:51.563Z,59.78
2023-05-11T17:23:53.808Z,59.99
2023-05-11T17:28:56.125Z,60.10
2023-05-11T17:33:58.571Z,60.52
2023-05-11T17:39:01.718Z,60.52
2023-05-11T17:44:04.830Z,60.47
2023-05-11T17:49:08.545Z,60.61
2023-05-11T17:54:11.623Z,60.95
2023-05-11T17:59:13.883Z,61.22
2023-05-11T18:04:16.280Z,61.18
2023-05-11T18:09:19.990Z,61.45
2023-05-11T18:14:22.259Z,61.15
2023-05-11T18:19:24.539Z,61.26
2023-05-11T18:24:27.416Z,61.31
2023-05-11T18:29:29.826Z,61.21
2023-05-11T18:34:32.208Z,61.21
2023-05-11T18:39:34.493Z,61.23
2023-05-11T18:44:36.749Z,61.52
2023-05-11T18:49:39.547Z,61.80
2023-05-11T18:54:42.083Z,61.61
2023-05-11T18:59:45.368Z,61.95
2023-05-11T19:04:47.549Z,61.73
2023-05-11T19:09:49.845Z,62.04
2023-05-11T19:14:55.844Z,62.16
2023-05-11T19:19:58.132Z,62.21
2023-05-11T19:25:01.389Z,62.34
2023-05-11T19:30:04.941Z,62.26
2023-05-11T19:35:07.384Z,62.22
2023-05-11T19:40:37.406Z,62.45
2023-05-11T19:45:33.567Z,61.92
2023-05-11T19:50:35.935Z,61.68
2023-05-11T19:55:40.197Z,61.66
2023-05-11T20:00:43.217Z,61.19
2023-05-11T20:05:45.941Z,61.28
2023-05-11T20:10:48.553Z,61.64
2023-05-11T20:15:51.131Z,61.30
2023-05-11T20:20:53.381Z,61.53
2023-05-11T20:25:55.554Z,61.09
2023-05-11T20:30:57.773Z,61.10
2023-05-11T20:36:00.644Z,61.26
2023-05-11T20:41:02.825Z,61.22
2023-05-11T20:46:05.938Z,61.09
2023-05-11T20:51:08.225Z,61.26
2023-05-11T20:56:13.040Z,61.07
2023-05-11T21:01:15.538Z,61.20
2023-05-11T21:06:17.999Z,61.40
2023-05-11T21:11:20.296Z,61.45
2023-05-11T21:16:22.812Z,61.45
2023-05-11T21:21:25.652Z,61.18
2023-05-11T21:26:27.875Z,60.85
2023-05-11T21:31:30.192Z,61.04
2023-05-11T21:36:32.566Z,61.24
2023-05-11T21:41:34.810Z,61.10
2023-05-11T21:46:37.088Z,61.28
2023-05-11T21:51:39.491Z,61.38
2023-05-11T21:56:42.222Z,61.56
2023-05-11T22:01:45.133Z,61.55
2023-05-11T22:06:47.308Z,61.93
2023-05-11T22:11:49.574Z,61.56
2023-05-11T22:16:52.489Z,61.71
2023-05-11T22:21:54.684Z,61.72
2023-05-11T22:26:56.871Z,62.19
2023-05-11T22:31:59.145Z,62.91
2023-05-11T22:37:01.984Z,63.21
2023-05-11T22:42:04.329Z,62.98
2023-05-11T22:47:06.836Z,62.77
2023-05-11T22:52:09.048Z,62.95
2023-05-11T22:57:13.937Z,63.23
2023-05-11T23:02:16.179Z,63.34
2023-05-11T23:07:19.290Z,63.55
2023-05-11T23:12:21.748Z,63.16
2023-05-11T23:17:24.110Z,63.67
2023-05-11T23:22:26.487Z,63.62
2023-05-11T23:27:29.059Z,63.45
2023-05-11T23:32:31.530Z,63.65
2023-05-11T23:37:33.975Z,63.78
2023-05-11T23:42:36.293Z,64.22
2023-05-11T23:47:38.625Z,64.40
2023-05-11T23:52:40.972Z,64.08
2023-05-11T23:57:44.159Z,64.29
